Maersk Danang — A8PS5 — position and weather

sailwx.info

Track history (hours):
 
Tides and Currents Weather Stations Pressure Air Temp Water Temp Dewpoint Dewpoint Depression Visibility Wind Speed Wind Dir Waves Ship Positions

Maersk Danang

Last reported at 2015-May-27 18:33 UTC. Time now 2015-May-29 00:19 UTC.
Position N 41°24' E 029°13'.

Length 293 m; draft 11.1 m.

Type: Ship (hazmat cat A). MMSI: 636091595.

Date/timePositionNaut miles runAvg speedWind from/ knotsBaromVisibWave heightAir tempDewpointWater temp
2015-May-27 18:33N 41°24' E 029°13'1010.0
2015-May-27 17:33N 41°15' E 029°10'2110.4
2015-May-27 15:33N 40°56' E 028°58'7 6.8
2015-May-27 14:33N 40°51' E 028°52'7 7.1
2015-May-27 13:33N 40°44' E 028°49'0 0.4
2015-May-27 12:32N 40°45' E 028°49'0 0.3
2015-May-27 11:31N 40°45' E 028°49'1 0.6
2015-May-27 10:33N 40°45' E 028°50'1 0.7
2015-May-27 09:33N 40°46' E 028°51'0 0.3
2015-May-27 08:33N 40°46' E 028°50'7 7.3
2015-May-27 07:32N 40°51' E 028°44'16 1.0
2015-May-26 15:04N 40°49' E 029°05'918.1
2015-May-26 14:34N 40°46' E 029°17'1211.6
2015-May-26 13:31N 40°45' E 029°32'8 1.5
2015-May-26 08:24N 40°46' E 029°43'0 0.0
2015-May-26 06:29N 40°46' E 029°43'0 0.0
2015-May-26 00:21N 40°46' E 029°43'9 1.2
2015-May-25 16:27N 40°45' E 029°30'9 9.5
2015-May-25 15:33N 40°44' E 029°19'1716.9
2015-May-25 14:33N 40°44' E 028°57'1616.3
2015-May-25 13:34N 40°44' E 028°36'1616.4
2015-May-25 12:33N 40°45' E 028°14'22112.8
2015-May-24 19:18N 37°35' E 025°49'2319.8
2015-May-24 18:07N 37°19' E 026°10'1120.1
2015-May-24 17:33N 37°11' E 026°21'8319.9
2015-May-24 13:22N 36°01' E 027°17'1720.2
2015-May-24 12:33N 35°48' E 027°30'2020.5
2015-May-24 11:33N 35°33' E 027°47'4120.5
2015-May-24 09:33N 35°03' E 028°21'3020.5
2015-May-24 08:05N 34°40' E 028°45'5220.6
2015-May-24 05:33N 34°02' E 029°28'4620.4
2015-May-24 03:17N 33°27' E 030°05'1621.0
2015-May-24 02:31N 33°16' E 030°18'4221.3
2015-May-24 00:33N 32°45' E 030°51'2921.0
2015-May-23 23:10N 32°23' E 031°14'1321.0
2015-May-23 22:33N 32°13' E 031°25'2121.3
2015-May-23 21:34N 31°58' E 031°42'2121.0
2015-May-23 20:33N 31°44' E 032°00'2020.4
2015-May-23 19:33N 31°30' E 032°18'1313.1
2015-May-23 18:33N 31°18' E 032°22'10 9.8
2015-May-23 17:33N 31°08' E 032°19'  
Track history (hours):
 
Tides and Currents Weather Stations Pressure Air Temp Water Temp Dewpoint Dewpoint Depression Visibility Wind Speed Wind Dir Waves Ship Positions

Maersk Danang

Last reported at 2015-May-27 18:33 UTC. Time now 2015-May-29 00:19 UTC.
Position N 41°24' E 029°13'.

Length 293 m; draft 11.1 m.

Type: Ship (hazmat cat A). MMSI: 636091595.

Date/timePositionNaut miles runAvg speedWind from/ knotsBaromVisibWave heightAir tempDewpointWater temp
2015-May-27 18:33N 41°24' E 029°13'1010.0
2015-May-27 17:33N 41°15' E 029°10'2110.4
2015-May-27 15:33N 40°56' E 028°58'7 6.8
2015-May-27 14:33N 40°51' E 028°52'7 7.1
2015-May-27 13:33N 40°44' E 028°49'0 0.4
2015-May-27 12:32N 40°45' E 028°49'0 0.3
2015-May-27 11:31N 40°45' E 028°49'1 0.6
2015-May-27 10:33N 40°45' E 028°50'1 0.7
2015-May-27 09:33N 40°46' E 028°51'0 0.3
2015-May-27 08:33N 40°46' E 028°50'7 7.3
2015-May-27 07:32N 40°51' E 028°44'16 1.0
2015-May-26 15:04N 40°49' E 029°05'918.1
2015-May-26 14:34N 40°46' E 029°17'1211.6
2015-May-26 13:31N 40°45' E 029°32'8 1.5
2015-May-26 08:24N 40°46' E 029°43'0 0.0
2015-May-26 06:29N 40°46' E 029°43'0 0.0
2015-May-26 00:21N 40°46' E 029°43'9 1.2
2015-May-25 16:27N 40°45' E 029°30'9 9.5
2015-May-25 15:33N 40°44' E 029°19'1716.9
2015-May-25 14:33N 40°44' E 028°57'1616.3
2015-May-25 13:34N 40°44' E 028°36'1616.4
2015-May-25 12:33N 40°45' E 028°14'22112.8
2015-May-24 19:18N 37°35' E 025°49'2319.8
2015-May-24 18:07N 37°19' E 026°10'1120.1
2015-May-24 17:33N 37°11' E 026°21'8319.9
2015-May-24 13:22N 36°01' E 027°17'1720.2
2015-May-24 12:33N 35°48' E 027°30'2020.5
2015-May-24 11:33N 35°33' E 027°47'4120.5
2015-May-24 09:33N 35°03' E 028°21'3020.5
2015-May-24 08:05N 34°40' E 028°45'5220.6
2015-May-24 05:33N 34°02' E 029°28'4620.4
2015-May-24 03:17N 33°27' E 030°05'1621.0
2015-May-24 02:31N 33°16' E 030°18'4221.3
2015-May-24 00:33N 32°45' E 030°51'2921.0
2015-May-23 23:10N 32°23' E 031°14'1321.0
2015-May-23 22:33N 32°13' E 031°25'2121.3
2015-May-23 21:34N 31°58' E 031°42'2121.0
2015-May-23 20:33N 31°44' E 032°00'2020.4
2015-May-23 19:33N 31°30' E 032°18'1313.1
2015-May-23 18:33N 31°18' E 032°22'10 9.8
2015-May-23 17:33N 31°08' E 032°19'  

Dump ship's entire track history